Carp, Canada
Current Conditions -  °F | °C
As of 8:41 AM on Tuesday 21 Oct 2014 (Local Time) from CYOW Reporting Station
Light Rain Light Rain  
Wind Chill: 30°   Ceiling: 4000
Heat Index: 39°   Visibility: 8mi
Dew Point: 39°   Wind: 16mph
Humidity: 100%   Direction: 50°NE
Pressure: 29.96"   Gusts: 24mph
Location:  45.35°N, 76.03°W
Report Text: CYOW 211241Z 05014G21KT 8SM -RA SCT005 OVC040 04/04 A2996 RMK SF3SC5 SLP149
Loading
Personal Weather Stations






























Interactive Weather Map
Tropical Storm Tracking
New forecast layout! Learn more

10-Day Weather Forecast

Advertisements
Track Severe Weather on mobile